Terminal Aerodrome Forecast
Issued by NWS Jacksonville, FL

Home | Current Version | Previous Version | Text Only | Print | Product List | Glossary On
Versions: 1 2 3 4 5 6 7 8 9 10 11 12 13 14 15
787
FTUS42 KJAX 091738
TAFGNV
TAF
KGNV 091738Z 0918/1018 27020G35KT P6SM FEW050
     FM092300 27009G15KT P6SM SKC
     FM101400 29012G25KT P6SM SKC=

USA.gov is the U.S. government's official web portal to all federal, state and local government web resources and services.